Aviation Digital Data Service (ADDS)

Output produced by METARs form (2023 UTC 23 October 2021)
found at http://www.aviationweather.gov/metar/data/
 
Forecast for: EDDK (KOELN/BONN , DE)
Text: TAF EDDK 231700Z 2318/2424 12005KT 9999 BKN040
Forecast period: 1800 UTC 23 October 2021 to 0800 UTC 24 October 2021
Forecast type: FROM: standard forecast or significant change
Winds: from the ESE (120 degrees) at 6 MPH (5 knots; 2.6 m/s)
Visibility: 6 or more miles (10+ km)
Ceiling: 4000 feet AGL
Clouds: broken clouds at 4000 feet AGL
Weather: no significant weather forecast for this period
Text: BECMG 2408/2411 14011KT
Forecast period: 0800 to 1800 UTC 24 October 2021
Forecast type: BECOMING: Conditions expected to become as follows by 1100 UTC 24 October 2021
Winds: from the SE (140 degrees) at 13 MPH (11 knots; 5.7 m/s)
Visibility: 6 or more miles (10+ km)
Ceiling: 4000 feet AGL
Clouds: broken clouds at 4000 feet AGL
Weather: no significant weather forecast for this period
Text: BECMG 2418/2420 13006KT
Forecast period: 1800 UTC 24 October 2021 to 0000 UTC 25 October 2021
Forecast type: BECOMING: Conditions expected to become as follows by 2000 UTC 24 October 2021
Winds: from the SE (130 degrees) at 7 MPH (6 knots; 3.1 m/s)
Visibility: 6 or more miles (10+ km)
Ceiling: 4000 feet AGL
Clouds: broken clouds at 4000 feet AGL
Weather: no significant weather forecast for this period